createdAt,value
2023-02-16T00:00:47.616Z,56.22
2023-02-16T00:03:21.108Z,57.13
2023-02-16T00:05:51.057Z,55.65
2023-02-16T00:08:19.343Z,55.38
2023-02-16T00:11:08.470Z,56.30
2023-02-16T00:13:45.188Z,56.35
2023-02-16T00:16:19.066Z,55.67
2023-02-16T00:18:49.540Z,57.17
2023-02-16T00:21:18.760Z,56.85
2023-02-16T00:23:48.552Z,55.40
2023-02-16T00:26:19.301Z,57.22
2023-02-16T00:28:47.549Z,56.03
2023-02-16T00:31:21.490Z,57.55
2023-02-16T00:33:51.428Z,56.03
2023-02-16T00:36:19.668Z,55.33
2023-02-16T00:38:48.211Z,57.28
2023-02-16T00:41:33.039Z,56.45
2023-02-16T00:44:01.406Z,55.88
2023-02-16T00:46:29.672Z,57.60
2023-02-16T00:48:59.335Z,56.78
2023-02-16T00:51:28.175Z,59.90
2023-02-16T00:53:56.584Z,58.65
2023-02-16T00:56:24.781Z,57.60
2023-02-16T00:58:55.358Z,57.53
2023-02-16T01:01:27.107Z,57.88
2023-02-16T01:03:55.566Z,59.83
2023-02-16T01:06:42.847Z,58.63
2023-02-16T01:09:32.462Z,60.15
2023-02-16T01:12:01.250Z,58.75
2023-02-16T01:14:32.043Z,58.50
2023-02-16T01:17:00.715Z,58.92
2023-02-16T01:19:29.034Z,58.38
2023-02-16T01:21:59.413Z,60.13
2023-02-16T01:24:27.786Z,59.40
2023-02-16T01:26:56.013Z,59.95
2023-02-16T01:29:24.320Z,59.40
2023-02-16T01:31:52.859Z,59.63
2023-02-16T01:34:21.164Z,58.13
2023-02-16T01:36:50.462Z,59.67
2023-02-16T01:39:22.467Z,60.63
2023-02-16T01:42:12.097Z,58.75
2023-02-16T01:44:46.321Z,58.33
2023-02-16T01:47:30.613Z,61.78
2023-02-16T01:50:00.786Z,58.15
2023-02-16T01:52:35.611Z,57.58
2023-02-16T01:55:11.544Z,59.83
2023-02-16T01:57:45.271Z,58.45
2023-02-16T02:02:47.873Z,58.28
2023-02-16T02:05:37.016Z,58.67
2023-02-16T02:08:13.402Z,58.40
2023-02-16T02:10:53.064Z,57.15
2023-02-16T02:13:25.798Z,57.75
2023-02-16T02:15:54.298Z,57.17
2023-02-16T02:18:22.795Z,56.20
2023-02-16T02:21:21.501Z,57.58
2023-02-16T02:24:25.351Z,57.45
2023-02-16T02:27:16.146Z,56.63
2023-02-16T02:30:09.693Z,55.47
2023-02-16T02:32:56.729Z,54.80
2023-02-16T02:35:36.920Z,55.45
2023-02-16T02:38:13.039Z,53.85
2023-02-16T02:40:55.771Z,56.20
2023-02-16T02:43:32.723Z,54.65
2023-02-16T02:46:08.287Z,54.50
2023-02-16T02:48:37.339Z,55.33
2023-02-16T02:51:33.655Z,54.35
2023-02-16T02:54:22.812Z,53.78
2023-02-16T02:57:14.814Z,51.90
2023-02-16T03:00:06.424Z,53.40
2023-02-16T03:02:38.171Z,51.78
2023-02-16T03:05:10.035Z,52.53
2023-02-16T03:07:48.806Z,52.97
2023-02-16T03:10:36.917Z,52.45
2023-02-16T03:13:09.123Z,52.45
2023-02-16T03:15:41.354Z,51.50
2023-02-16T03:18:29.535Z,52.42
2023-02-16T03:21:16.425Z,52.30
2023-02-16T03:24:04.359Z,51.78
2023-02-16T03:26:51.588Z,52.72
2023-02-16T03:29:22.685Z,51.53
2023-02-16T03:31:55.016Z,51.80
2023-02-16T03:34:23.632Z,49.58
2023-02-16T03:36:58.668Z,51.58
2023-02-16T03:39:27.678Z,50.03
2023-02-16T03:41:57.810Z,49.30
2023-02-16T03:44:26.577Z,49.25
2023-02-16T03:46:56.295Z,49.33
2023-02-16T03:49:24.441Z,50.63
2023-02-16T03:51:52.810Z,49.20
2023-02-16T03:54:21.360Z,49.13
2023-02-16T03:56:49.992Z,47.45
2023-02-16T03:59:20.493Z,49.15
2023-02-16T04:01:48.973Z,47.83
2023-02-16T04:04:18.682Z,49.17
2023-02-16T04:06:47.149Z,48.10
2023-02-16T04:09:15.459Z,48.63
2023-02-16T04:12:01.204Z,48.53
2023-02-16T04:14:29.602Z,49.58
2023-02-16T04:16:57.794Z,48.38
2023-02-16T04:19:27.519Z,49.42
2023-02-16T04:21:56.064Z,48.35
2023-02-16T04:24:24.530Z,48.67
2023-02-16T04:26:52.851Z,49.10
2023-02-16T04:29:21.290Z,47.75
2023-02-16T04:31:49.895Z,49.15
2023-02-16T04:34:18.513Z,47.53
2023-02-16T04:36:48.420Z,48.60
2023-02-16T04:39:16.662Z,46.97
2023-02-16T04:41:45.325Z,48.25
2023-02-16T04:44:13.769Z,48.10
2023-02-16T04:46:42.006Z,48.10
2023-02-16T04:49:10.443Z,46.83
2023-02-16T04:51:40.039Z,46.80
2023-02-16T04:54:09.996Z,47.85
2023-02-16T04:56:38.690Z,47.97
2023-02-16T04:59:07.114Z,47.25
2023-02-16T05:01:35.408Z,46.97
2023-02-16T05:04:03.722Z,47.50
2023-02-16T05:06:32.122Z,47.30
2023-02-16T05:09:00.366Z,47.88
2023-02-16T05:11:47.392Z,46.80
2023-02-16T05:14:37.457Z,45.95
2023-02-16T05:17:06.071Z,45.47
2023-02-16T05:19:34.304Z,46.22
2023-02-16T05:22:02.640Z,47.33
2023-02-16T05:24:30.896Z,47.58
2023-02-16T05:27:00.842Z,47.22
2023-02-16T05:29:29.170Z,46.22
2023-02-16T05:31:57.782Z,47.55
2023-02-16T05:34:26.108Z,46.65
2023-02-16T05:36:57.546Z,45.92
2023-02-16T05:39:25.885Z,46.72
2023-02-16T05:41:54.217Z,47.38
2023-02-16T05:44:24.027Z,45.45
2023-02-16T05:46:52.381Z,46.92
2023-02-16T05:49:20.606Z,46.78
2023-02-16T05:51:48.904Z,45.67
2023-02-16T05:54:18.383Z,47.00
2023-02-16T05:56:47.746Z,47.53
2023-02-16T05:59:16.823Z,45.28
2023-02-16T06:01:51.216Z,46.03
2023-02-16T06:04:20.924Z,45.60
2023-02-16T06:06:49.321Z,44.47
2023-02-16T06:09:17.875Z,44.55
2023-02-16T06:11:46.277Z,44.92
2023-02-16T06:14:16.695Z,47.55
2023-02-16T06:16:48.401Z,45.97
2023-02-16T06:19:18.999Z,44.03
2023-02-16T06:21:47.648Z,44.75
2023-02-16T06:24:16.462Z,45.25
2023-02-16T06:26:44.785Z,44.70
2023-02-16T06:29:12.983Z,43.17
2023-02-16T06:31:41.658Z,44.88
2023-02-16T06:34:11.514Z,42.40
2023-02-16T06:36:42.430Z,43.85
2023-02-16T06:39:10.917Z,43.50
2023-02-16T06:41:40.588Z,45.30
2023-02-16T06:44:12.398Z,45.20
2023-02-16T06:46:41.494Z,44.13
2023-02-16T06:49:13.731Z,45.88
2023-02-16T06:51:42.657Z,44.20
2023-02-16T06:54:10.979Z,46.72
2023-02-16T06:56:39.174Z,45.28
2023-02-16T06:59:07.784Z,46.42
2023-02-16T07:01:36.121Z,44.80
2023-02-16T07:04:04.397Z,45.10
2023-02-16T07:06:34.214Z,45.08
2023-02-16T07:09:02.534Z,43.97
2023-02-16T07:11:30.940Z,44.58
2023-02-16T07:13:59.377Z,43.45
2023-02-16T07:16:27.716Z,43.75
2023-02-16T07:18:56.033Z,44.03
2023-02-16T07:21:24.374Z,43.42
2023-02-16T07:23:53.972Z,45.15
2023-02-16T07:26:22.221Z,43.60
2023-02-16T07:28:50.679Z,44.25
2023-02-16T07:31:19.571Z,43.58
2023-02-16T07:33:47.881Z,44.00
2023-02-16T07:36:16.444Z,43.75
2023-02-16T07:38:44.630Z,43.40
2023-02-16T07:41:14.297Z,42.78
2023-02-16T07:43:43.188Z,44.58
2023-02-16T07:46:12.009Z,45.13
2023-02-16T07:48:40.265Z,45.80
2023-02-16T07:51:08.711Z,46.40
2023-02-16T07:53:37.243Z,44.67
2023-02-16T07:56:05.964Z,47.10
2023-02-16T07:58:37.044Z,44.90
2023-02-16T08:01:11.003Z,48.20
2023-02-16T08:03:39.500Z,47.35
2023-02-16T08:06:08.779Z,45.90
2023-02-16T08:08:37.604Z,45.90
2023-02-16T08:11:11.235Z,47.67
2023-02-16T08:16:10.445Z,45.83
2023-02-16T08:18:39.059Z,45.05
2023-02-16T08:21:14.465Z,45.33
2023-02-16T08:23:47.636Z,47.20
2023-02-16T08:26:18.368Z,47.00
2023-02-16T08:28:50.222Z,47.17
2023-02-16T08:31:20.723Z,47.17
2023-02-16T08:33:49.123Z,47.38
2023-02-16T08:36:21.607Z,46.97
2023-02-16T08:38:51.109Z,47.10
2023-02-16T08:41:19.891Z,46.78
2023-02-16T08:43:50.142Z,47.17
2023-02-16T08:46:18.843Z,46.60
2023-02-16T08:48:47.500Z,46.95
2023-02-16T08:51:17.897Z,46.15
2023-02-16T08:53:46.679Z,46.65
2023-02-16T08:56:16.880Z,46.92
2023-02-16T08:58:45.476Z,45.70
2023-02-16T09:01:16.608Z,46.25
2023-02-16T09:03:47.310Z,46.53
2023-02-16T09:06:17.239Z,48.10
2023-02-16T09:08:46.625Z,46.90
2023-02-16T09:11:16.751Z,46.92
2023-02-16T09:13:46.954Z,47.75
2023-02-16T09:16:18.565Z,47.92
2023-02-16T09:18:48.039Z,46.78
2023-02-16T09:21:19.625Z,46.08
2023-02-16T09:23:50.074Z,44.45
2023-02-16T09:26:20.491Z,44.92
2023-02-16T09:28:50.510Z,44.03
2023-02-16T09:31:25.936Z,43.90
2023-02-16T09:33:56.239Z,44.67
2023-02-16T09:36:25.319Z,43.03
2023-02-16T09:38:54.632Z,43.10
2023-02-16T09:41:33.780Z,43.15
2023-02-16T09:44:08.101Z,40.95
2023-02-16T09:46:38.706Z,40.38
2023-02-16T09:49:08.446Z,42.22
2023-02-16T09:51:41.327Z,40.60
2023-02-16T09:54:22.973Z,40.83
2023-02-16T09:56:58.428Z,40.25
2023-02-16T09:59:39.188Z,41.38
2023-02-16T10:02:35.135Z,40.83
2023-02-16T10:05:22.078Z,41.67
2023-02-16T10:08:04.111Z,39.63
2023-02-16T10:10:40.223Z,39.28
2023-02-16T10:13:16.990Z,38.90
2023-02-16T10:15:46.650Z,39.05
2023-02-16T10:18:23.431Z,38.88
2023-02-16T10:20:56.510Z,38.78
2023-02-16T10:23:43.682Z,38.40
2023-02-16T10:26:18.404Z,38.72
2023-02-16T10:28:49.699Z,38.83
2023-02-16T10:31:25.484Z,37.92
2023-02-16T10:34:19.535Z,37.53
2023-02-16T10:37:18.617Z,36.42
2023-02-16T10:39:55.920Z,36.88
2023-02-16T10:42:35.269Z,35.00
2023-02-16T10:45:15.632Z,33.85
2023-02-16T10:47:46.387Z,36.88
2023-02-16T10:50:24.189Z,36.28
2023-02-16T10:52:56.165Z,34.63
2023-02-16T10:55:24.684Z,34.92
2023-02-16T10:57:56.094Z,34.50
2023-02-16T11:00:35.065Z,35.53
2023-02-16T11:03:04.586Z,34.80
2023-02-16T11:05:38.172Z,34.40
2023-02-16T11:08:11.425Z,33.53
2023-02-16T11:10:43.813Z,33.45
2023-02-16T11:13:30.097Z,33.47
2023-02-16T11:16:01.645Z,34.58
2023-02-16T11:18:36.480Z,32.83
2023-02-16T11:21:08.271Z,34.70
2023-02-16T11:23:38.139Z,33.15
2023-02-16T11:26:22.490Z,32.90
2023-02-16T11:28:51.629Z,31.90
2023-02-16T11:31:31.646Z,31.25
2023-02-16T11:34:05.830Z,30.13
2023-02-16T11:36:39.409Z,28.08
2023-02-16T11:39:16.450Z,30.48
2023-02-16T11:41:47.201Z,28.23
2023-02-16T11:44:27.523Z,28.33
2023-02-16T11:46:57.669Z,27.77
2023-02-16T11:49:35.721Z,28.05
2023-02-16T11:52:21.028Z,27.58
2023-02-16T11:54:53.303Z,28.73
2023-02-16T11:57:27.039Z,28.10
2023-02-16T11:59:56.292Z,28.33
2023-02-16T12:02:58.230Z,29.15
2023-02-16T12:05:33.859Z,28.30
2023-02-16T12:08:26.135Z,28.85
2023-02-16T12:11:19.662Z,28.25
2023-02-16T12:14:02.238Z,27.95
2023-02-16T12:16:43.207Z,27.30
2023-02-16T12:19:26.289Z,25.42
2023-02-16T12:22:02.897Z,26.90
2023-02-16T12:24:44.510Z,26.92
2023-02-16T12:27:19.903Z,26.52
2023-02-16T12:29:54.940Z,27.58
2023-02-16T12:32:39.376Z,25.92
2023-02-16T12:35:21.949Z,26.45
2023-02-16T12:37:57.428Z,27.02
2023-02-16T12:40:39.552Z,26.60
2023-02-16T12:43:25.533Z,27.20
2023-02-16T12:45:56.926Z,27.15
2023-02-16T12:48:40.447Z,27.92
2023-02-16T12:51:12.972Z,27.75
2023-02-16T12:53:48.198Z,27.55
2023-02-16T12:56:21.843Z,26.70
2023-02-16T13:01:26.058Z,27.48
2023-02-16T13:03:58.863Z,27.98
2023-02-16T13:06:32.904Z,27.17
2023-02-16T13:09:11.719Z,27.90
2023-02-16T13:11:47.579Z,27.20
2023-02-16T13:14:20.197Z,27.48
2023-02-16T13:16:52.849Z,26.80
2023-02-16T13:19:21.762Z,26.95
2023-02-16T13:22:31.576Z,26.10
2023-02-16T13:25:23.157Z,25.30
2023-02-16T13:28:03.057Z,24.60
2023-02-16T13:30:58.797Z,24.20
2023-02-16T13:33:48.878Z,25.70
2023-02-16T13:36:41.524Z,23.92
2023-02-16T13:39:26.646Z,23.95
2023-02-16T13:42:21.919Z,23.50
2023-02-16T13:44:56.001Z,22.77
2023-02-16T13:47:29.070Z,23.98
2023-02-16T13:50:00.390Z,23.50
2023-02-16T13:52:35.199Z,22.15
2023-02-16T13:55:08.331Z,21.98
2023-02-16T13:58:04.994Z,22.00
2023-02-16T14:00:38.026Z,22.00
2023-02-16T14:03:13.584Z,21.45
2023-02-16T14:05:43.856Z,20.45
2023-02-16T14:08:21.882Z,20.75
2023-02-16T14:11:12.056Z,19.55
2023-02-16T14:13:51.638Z,20.40
2023-02-16T14:16:45.034Z,20.40
2023-02-16T14:19:23.868Z,21.60
2023-02-16T14:21:53.190Z,21.27
2023-02-16T14:24:31.535Z,20.88
2023-02-16T14:27:01.416Z,21.20
2023-02-16T14:29:33.450Z,22.02
2023-02-16T14:32:08.321Z,21.63
2023-02-16T14:34:43.728Z,22.83
2023-02-16T14:37:31.745Z,22.70
2023-02-16T14:40:19.192Z,21.92
2023-02-16T14:42:57.290Z,21.35
2023-02-16T14:46:18.144Z,20.30
2023-02-16T14:49:15.492Z,21.75
2023-02-16T14:52:21.350Z,20.20
2023-02-16T14:55:09.380Z,19.50
2023-02-16T14:57:44.502Z,19.45
2023-02-16T15:00:19.836Z,20.17
2023-02-16T15:02:58.495Z,20.25
2023-02-16T15:05:32.433Z,21.05
2023-02-16T15:08:10.487Z,20.63
2023-02-16T15:10:41.085Z,21.33
2023-02-16T15:13:09.864Z,20.73
2023-02-16T15:15:47.231Z,21.20
2023-02-16T15:18:18.716Z,21.92
2023-02-16T15:20:51.456Z,22.55
2023-02-16T15:23:22.132Z,22.77
2023-02-16T15:26:00.215Z,24.38
2023-02-16T15:28:30.862Z,23.63
2023-02-16T15:31:00.508Z,24.38
2023-02-16T15:33:37.878Z,22.58
2023-02-16T15:36:12.088Z,23.85
2023-02-16T15:38:42.128Z,24.00
2023-02-16T15:41:15.334Z,23.13
2023-02-16T15:43:50.436Z,23.23
2023-02-16T15:46:26.611Z,23.52
2023-02-16T15:48:55.171Z,22.85
2023-02-16T15:51:29.069Z,25.02
2023-02-16T15:53:59.088Z,22.08
2023-02-16T15:56:31.571Z,22.63
2023-02-16T15:59:02.827Z,23.13
2023-02-16T16:01:36.524Z,22.05
2023-02-16T16:04:08.869Z,21.85
2023-02-16T16:06:41.148Z,21.90
2023-02-16T16:09:21.763Z,21.98
2023-02-16T16:11:51.863Z,21.38
2023-02-16T16:14:20.847Z,21.67
2023-02-16T16:16:49.774Z,21.70
2023-02-16T16:19:22.442Z,22.10
2023-02-16T16:21:55.840Z,21.75
2023-02-16T16:24:38.401Z,22.60
2023-02-16T16:27:09.619Z,22.27
2023-02-16T16:29:42.111Z,22.23
2023-02-16T16:32:20.684Z,22.10
2023-02-16T16:34:49.448Z,21.88
2023-02-16T16:37:28.636Z,23.10
2023-02-16T16:40:04.331Z,21.92
2023-02-16T16:42:34.114Z,22.33
2023-02-16T16:45:08.369Z,21.48
2023-02-16T16:47:40.451Z,21.20
2023-02-16T16:50:31.838Z,20.10
2023-02-16T16:53:01.852Z,21.42
2023-02-16T16:55:33.484Z,20.42
2023-02-16T16:58:05.046Z,20.15
2023-02-16T17:00:35.697Z,20.40
2023-02-16T17:03:04.853Z,19.08
2023-02-16T17:05:33.584Z,18.50
2023-02-16T17:08:03.606Z,19.20
2023-02-16T17:10:32.019Z,19.63
2023-02-16T17:13:01.775Z,20.00
2023-02-16T17:15:39.632Z,20.70
2023-02-16T17:18:10.739Z,20.05
2023-02-16T17:20:38.943Z,21.00
2023-02-16T17:23:08.601Z,22.30
2023-02-16T17:25:37.444Z,20.77
2023-02-16T17:28:06.337Z,21.25
2023-02-16T17:30:35.312Z,20.77
2023-02-16T17:33:04.046Z,21.02
2023-02-16T17:35:33.144Z,20.95
2023-02-16T17:38:07.476Z,20.83
2023-02-16T17:40:37.441Z,20.00
2023-02-16T17:43:12.489Z,20.50
2023-02-16T17:45:40.847Z,18.73
2023-02-16T17:48:09.151Z,17.90
2023-02-16T17:50:37.782Z,18.05
2023-02-16T17:53:10.877Z,17.58
2023-02-16T17:55:40.900Z,18.60
2023-02-16T17:58:09.494Z,19.73
2023-02-16T18:00:38.237Z,18.10
2023-02-16T18:03:06.590Z,18.10
2023-02-16T18:05:35.015Z,19.65
2023-02-16T18:08:03.286Z,19.98
2023-02-16T18:10:37.754Z,18.98
2023-02-16T18:13:08.196Z,19.30
2023-02-16T18:15:36.584Z,19.05
2023-02-16T18:18:05.366Z,18.73
2023-02-16T18:20:33.563Z,19.33
2023-02-16T18:23:01.869Z,18.33
2023-02-16T18:25:30.264Z,18.77
2023-02-16T18:27:58.554Z,18.40
2023-02-16T18:30:28.521Z,18.15
2023-02-16T18:32:58.684Z,17.17
2023-02-16T18:35:26.883Z,17.52
2023-02-16T18:37:55.119Z,17.15
2023-02-16T18:40:23.789Z,17.15
2023-02-16T18:42:52.274Z,16.85
2023-02-16T18:45:20.684Z,16.10
2023-02-16T18:47:51.043Z,16.85
2023-02-16T18:50:19.746Z,16.63
2023-02-16T18:52:48.355Z,15.88
2023-02-16T18:55:17.993Z,15.23
2023-02-16T18:57:46.253Z,14.85
2023-02-16T19:00:15.824Z,14.02
2023-02-16T19:02:44.808Z,14.43
2023-02-16T19:05:15.000Z,14.70
2023-02-16T19:07:43.903Z,14.45
2023-02-16T19:10:12.907Z,13.60
2023-02-16T19:12:41.757Z,14.23
2023-02-16T19:15:10.670Z,13.48
2023-02-16T19:17:39.801Z,12.48
2023-02-16T19:20:11.778Z,12.15
2023-02-16T19:22:41.801Z,11.75
2023-02-16T19:25:10.458Z,12.18
2023-02-16T19:27:38.807Z,11.68
2023-02-16T19:30:08.514Z,11.35
2023-02-16T19:32:37.397Z,11.63
2023-02-16T19:35:05.942Z,10.48
2023-02-16T19:37:34.344Z,9.82
2023-02-16T19:40:04.036Z,10.93
2023-02-16T19:42:32.462Z,10.52
2023-02-16T19:45:00.771Z,10.57
2023-02-16T19:47:29.064Z,10.00
2023-02-16T19:49:57.470Z,9.77
2023-02-16T19:52:26.024Z,9.68
2023-02-16T19:54:54.266Z,10.02
2023-02-16T19:57:24.077Z,10.40
2023-02-16T19:59:52.454Z,10.00
2023-02-16T20:02:20.766Z,10.90
2023-02-16T20:04:49.177Z,11.35
2023-02-16T20:07:17.554Z,11.02
2023-02-16T20:09:46.034Z,11.15
2023-02-16T20:12:15.626Z,12.10
2023-02-16T20:14:45.484Z,11.50
2023-02-16T20:17:13.719Z,12.68
2023-02-16T20:19:42.079Z,12.13
2023-02-16T20:22:10.893Z,12.43
2023-02-16T20:24:39.575Z,12.60
2023-02-16T20:27:07.847Z,13.43
2023-02-16T20:29:36.446Z,13.32
2023-02-16T20:32:07.024Z,13.38
2023-02-16T20:34:35.461Z,14.63
2023-02-16T20:37:03.922Z,14.15
2023-02-16T20:39:32.172Z,13.95
2023-02-16T20:42:00.556Z,15.07
2023-02-16T20:44:28.962Z,14.45
2023-02-16T20:46:57.307Z,13.90
2023-02-16T20:49:27.008Z,14.57
2023-02-16T20:51:55.422Z,15.00
2023-02-16T20:54:23.787Z,14.25
2023-02-16T20:56:52.245Z,14.43
2023-02-16T20:59:20.752Z,14.55
2023-02-16T21:01:52.179Z,13.45
2023-02-16T21:04:22.068Z,12.88
2023-02-16T21:06:51.758Z,12.98
2023-02-16T21:09:20.114Z,12.02
2023-02-16T21:11:48.628Z,11.68
2023-02-16T21:14:17.430Z,11.60
2023-02-16T21:16:46.673Z,10.63
2023-02-16T21:19:22.923Z,10.48
2023-02-16T21:21:53.536Z,10.30
2023-02-16T21:24:22.440Z,10.75
2023-02-16T21:26:50.703Z,10.27
2023-02-16T21:29:19.120Z,9.98
2023-02-16T21:31:47.508Z,11.15
2023-02-16T21:34:15.900Z,11.13
2023-02-16T21:36:44.460Z,10.50
2023-02-16T21:39:14.549Z,10.18
2023-02-16T21:41:41.898Z,10.25
2023-02-16T21:44:12.040Z,11.35
2023-02-16T21:46:43.307Z,10.20
2023-02-16T21:49:14.190Z,11.02
2023-02-16T21:51:43.629Z,10.40
2023-02-16T21:54:16.428Z,10.20
2023-02-16T21:56:45.555Z,10.03
2023-02-16T21:59:16.158Z,11.70
2023-02-16T22:01:47.529Z,10.95
2023-02-16T22:04:17.571Z,10.77
2023-02-16T22:06:48.534Z,10.40
2023-02-16T22:09:20.982Z,10.55
2023-02-16T22:11:50.387Z,10.90
2023-02-16T22:14:19.152Z,11.38
2023-02-16T22:16:48.972Z,11.00
2023-02-16T22:19:19.491Z,10.93
2023-02-16T22:21:49.558Z,11.02
2023-02-16T22:24:20.816Z,11.00
2023-02-16T22:26:50.643Z,9.15
2023-02-16T22:29:20.038Z,8.68
2023-02-16T22:31:50.529Z,9.27
2023-02-16T22:34:21.132Z,9.32
2023-02-16T22:36:50.059Z,9.57
2023-02-16T22:39:20.610Z,8.60
2023-02-16T22:41:51.371Z,8.40
2023-02-16T22:44:19.616Z,8.50
2023-02-16T22:46:48.058Z,8.50
2023-02-16T22:49:16.464Z,8.75
2023-02-16T22:51:44.677Z,8.05
2023-02-16T22:54:14.575Z,7.90
2023-02-16T22:56:44.387Z,7.70
2023-02-16T22:59:13.526Z,7.63
2023-02-16T23:01:42.161Z,7.82
2023-02-16T23:04:15.304Z,8.13
2023-02-16T23:06:47.629Z,7.88
2023-02-16T23:09:18.770Z,8.50
2023-02-16T23:11:49.450Z,8.38
2023-02-16T23:14:18.423Z,7.85
2023-02-16T23:16:48.944Z,8.15
2023-02-16T23:19:20.369Z,7.72
2023-02-16T23:21:49.482Z,7.32
2023-02-16T23:24:20.173Z,7.25
2023-02-16T23:26:50.259Z,7.38
2023-02-16T23:29:19.094Z,6.57
2023-02-16T23:31:48.981Z,6.47
2023-02-16T23:34:18.346Z,5.60
2023-02-16T23:36:47.059Z,6.40
2023-02-16T23:39:18.146Z,6.05
2023-02-16T23:41:47.092Z,5.82
2023-02-16T23:44:16.760Z,5.57
2023-02-16T23:46:45.134Z,5.78
2023-02-16T23:49:13.680Z,6.03
2023-02-16T23:51:41.944Z,5.47
2023-02-16T23:54:11.606Z,4.88
2023-02-16T23:56:42.522Z,5.18
2023-02-16T23:59:10.859Z,4.95
